Terminal Aerodrome Forecast
Issued by NWS Sterling, VA

Home | Current Version | Previous Version | Text Only | Print | Product List | Glossary On
Versions: 1 2 3 4 5 6 7 8 9 10 11 12 13 14
772
FTUS41 KLWX 040520
TAFMRB
TAF
KMRB 040520Z 0406/0506 28006KT P6SM FEW040 BKN250
     FM041400 VRB03KT P6SM BKN200
     FM050300 15004KT 5SM -RA BR OVC025=

USA.gov is the U.S. government's official web portal to all federal, state and local government web resources and services.